Littleton, New Hampshire
Current Conditions -  °F | °C
As of 5:52 AM on Tuesday 21 Oct 2014 (Local Time) from KHIE Reporting Station
Light Rain Light Rain  
Wind Chill: 39°   Ceiling: 5000
Heat Index: 39°   Visibility: 10mi
Dew Point: 36°   Wind: 0mph
Humidity: 89%   Direction: NA
Pressure: 29.98"   Gusts: NA
Location:  44.31°N, 71.77°W
Report Text: KHIE 210952Z AUTO 00000KT 10SM -RA FEW045 OVC050 04/02 A2998 RMK AO2 SLP161 P0002 T00390022
Loading
Personal Weather Stations






























Interactive Weather Map New forecast layout! Learn more

10-Day Weather Forecast

Advertisements
Track Severe Weather on mobile